sensor_id;sensor_type;location;lat;lon;timestamp;P1;durP1;ratioP1;P2;durP2;ratioP2
61477;SDS011;47345;52.334;10.392;2023-04-25T00:00:04;6.70;;;3.00;;
61477;SDS011;47345;52.334;10.392;2023-04-25T00:02:36;5.70;;;3.30;;
61477;SDS011;47345;52.334;10.392;2023-04-25T00:05:07;5.10;;;2.80;;
61477;SDS011;47345;52.334;10.392;2023-04-25T00:07:39;4.40;;;2.90;;
61477;SDS011;47345;52.334;10.392;2023-04-25T00:10:10;6.60;;;2.90;;
61477;SDS011;47345;52.334;10.392;2023-04-25T00:12:41;5.20;;;2.70;;
61477;SDS011;47345;52.334;10.392;2023-04-25T00:15:11;5.90;;;2.70;;
61477;SDS011;47345;52.334;10.392;2023-04-25T00:17:42;6.00;;;2.90;;
61477;SDS011;47345;52.334;10.392;2023-04-25T00:20:13;4.80;;;2.70;;
61477;SDS011;47345;52.334;10.392;2023-04-25T00:22:44;4.50;;;2.80;;
61477;SDS011;47345;52.334;10.392;2023-04-25T00:25:15;4.00;;;2.90;;
61477;SDS011;47345;52.334;10.392;2023-04-25T00:27:46;4.50;;;2.70;;
61477;SDS011;47345;52.334;10.392;2023-04-25T00:30:17;7.60;;;2.90;;
61477;SDS011;47345;52.334;10.392;2023-04-25T00:32:47;4.00;;;2.60;;
61477;SDS011;47345;52.334;10.392;2023-04-25T00:35:18;8.20;;;3.10;;
61477;SDS011;47345;52.334;10.392;2023-04-25T00:37:53;5.10;;;2.80;;
61477;SDS011;47345;52.334;10.392;2023-04-25T00:40:24;4.60;;;2.70;;
61477;SDS011;47345;52.334;10.392;2023-04-25T00:42:56;4.00;;;2.60;;
61477;SDS011;47345;52.334;10.392;2023-04-25T00:45:28;4.30;;;3.10;;
61477;SDS011;47345;52.334;10.392;2023-04-25T00:47:58;5.00;;;2.70;;
61477;SDS011;47345;52.334;10.392;2023-04-25T00:50:29;4.60;;;3.00;;
61477;SDS011;47345;52.334;10.392;2023-04-25T00:53:01;2.60;;;2.10;;
61477;SDS011;47345;52.334;10.392;2023-04-25T00:55:32;5.50;;;2.90;;
61477;SDS011;47345;52.334;10.392;2023-04-25T00:58:03;6.10;;;2.70;;
61477;SDS011;47345;52.334;10.392;2023-04-25T01:00:34;2.70;;;2.30;;
61477;SDS011;47345;52.334;10.392;2023-04-25T01:03:05;3.20;;;2.70;;
61477;SDS011;47345;52.334;10.392;2023-04-25T01:05:38;5.90;;;2.70;;
61477;SDS011;47345;52.334;10.392;2023-04-25T01:08:10;7.00;;;2.70;;
61477;SDS011;47345;52.334;10.392;2023-04-25T01:10:41;5.60;;;2.70;;
61477;SDS011;47345;52.334;10.392;2023-04-25T01:13:13;5.60;;;2.90;;
61477;SDS011;47345;52.334;10.392;2023-04-25T01:15:43;4.10;;;3.20;;
61477;SDS011;47345;52.334;10.392;2023-04-25T01:18:14;4.30;;;2.70;;
61477;SDS011;47345;52.334;10.392;2023-04-25T01:20:45;5.00;;;2.70;;
61477;SDS011;47345;52.334;10.392;2023-04-25T01:23:17;2.30;;;2.10;;
61477;SDS011;47345;52.334;10.392;2023-04-25T01:25:48;7.60;;;3.40;;
61477;SDS011;47345;52.334;10.392;2023-04-25T01:28:19;4.80;;;2.50;;
61477;SDS011;47345;52.334;10.392;2023-04-25T01:30:50;4.00;;;2.60;;
61477;SDS011;47345;52.334;10.392;2023-04-25T01:33:22;3.90;;;2.70;;
61477;SDS011;47345;52.334;10.392;2023-04-25T01:35:52;6.10;;;3.00;;
61477;SDS011;47345;52.334;10.392;2023-04-25T01:38:23;5.20;;;2.70;;
61477;SDS011;47345;52.334;10.392;2023-04-25T01:40:54;5.70;;;3.10;;
61477;SDS011;47345;52.334;10.392;2023-04-25T01:43:25;3.60;;;2.60;;
61477;SDS011;47345;52.334;10.392;2023-04-25T01:45:56;4.50;;;2.60;;
61477;SDS011;47345;52.334;10.392;2023-04-25T01:48:27;6.50;;;3.10;;
61477;SDS011;47345;52.334;10.392;2023-04-25T01:50:58;5.60;;;2.70;;
61477;SDS011;47345;52.334;10.392;2023-04-25T01:53:29;4.90;;;2.80;;
61477;SDS011;47345;52.334;10.392;2023-04-25T01:56:00;3.60;;;2.40;;
61477;SDS011;47345;52.334;10.392;2023-04-25T02:01:33;5.20;;;2.70;;
61477;SDS011;47345;52.334;10.392;2023-04-25T02:04:04;4.60;;;2.90;;
61477;SDS011;47345;52.334;10.392;2023-04-25T02:06:35;3.10;;;2.20;;
61477;SDS011;47345;52.334;10.392;2023-04-25T02:09:06;2.80;;;2.50;;
61477;SDS011;47345;52.334;10.392;2023-04-25T02:11:37;3.90;;;2.90;;
61477;SDS011;47345;52.334;10.392;2023-04-25T02:14:07;6.70;;;2.90;;
61477;SDS011;47345;52.334;10.392;2023-04-25T02:16:38;5.70;;;3.50;;
61477;SDS011;47345;52.334;10.392;2023-04-25T02:19:08;5.70;;;2.90;;
61477;SDS011;47345;52.334;10.392;2023-04-25T02:21:39;4.70;;;2.90;;
61477;SDS011;47345;52.334;10.392;2023-04-25T02:24:09;5.00;;;2.80;;
61477;SDS011;47345;52.334;10.392;2023-04-25T02:26:40;5.70;;;3.40;;
61477;SDS011;47345;52.334;10.392;2023-04-25T02:29:11;8.30;;;3.80;;
61477;SDS011;47345;52.334;10.392;2023-04-25T02:31:42;8.00;;;3.10;;
61477;SDS011;47345;52.334;10.392;2023-04-25T02:34:13;4.90;;;3.30;;
61477;SDS011;47345;52.334;10.392;2023-04-25T02:36:44;5.70;;;3.30;;
61477;SDS011;47345;52.334;10.392;2023-04-25T02:39:15;6.80;;;3.20;;
61477;SDS011;47345;52.334;10.392;2023-04-25T02:41:45;12.10;;;3.60;;
61477;SDS011;47345;52.334;10.392;2023-04-25T02:44:16;6.70;;;3.20;;
61477;SDS011;47345;52.334;10.392;2023-04-25T02:46:47;6.30;;;3.50;;
61477;SDS011;47345;52.334;10.392;2023-04-25T02:49:18;4.10;;;3.00;;
61477;SDS011;47345;52.334;10.392;2023-04-25T02:51:48;3.80;;;2.80;;
61477;SDS011;47345;52.334;10.392;2023-04-25T02:54:19;4.80;;;3.20;;
61477;SDS011;47345;52.334;10.392;2023-04-25T02:56:50;6.10;;;3.10;;
61477;SDS011;47345;52.334;10.392;2023-04-25T02:59:21;7.00;;;3.50;;
61477;SDS011;47345;52.334;10.392;2023-04-25T03:01:52;6.80;;;3.50;;
61477;SDS011;47345;52.334;10.392;2023-04-25T03:04:22;7.10;;;3.40;;
61477;SDS011;47345;52.334;10.392;2023-04-25T03:06:53;8.10;;;3.90;;
61477;SDS011;47345;52.334;10.392;2023-04-25T03:09:24;6.70;;;3.10;;
61477;SDS011;47345;52.334;10.392;2023-04-25T03:11:55;7.60;;;3.40;;
61477;SDS011;47345;52.334;10.392;2023-04-25T03:14:25;6.10;;;3.40;;
61477;SDS011;47345;52.334;10.392;2023-04-25T03:16:56;6.20;;;3.90;;
61477;SDS011;47345;52.334;10.392;2023-04-25T03:19:27;6.30;;;3.50;;
61477;SDS011;47345;52.334;10.392;2023-04-25T03:21:58;6.20;;;3.40;;
61477;SDS011;47345;52.334;10.392;2023-04-25T03:24:29;5.30;;;3.30;;
61477;SDS011;47345;52.334;10.392;2023-04-25T03:26:59;8.70;;;3.50;;
61477;SDS011;47345;52.334;10.392;2023-04-25T03:29:30;6.40;;;3.20;;
61477;SDS011;47345;52.334;10.392;2023-04-25T03:32:01;8.10;;;3.40;;
61477;SDS011;47345;52.334;10.392;2023-04-25T03:34:32;3.80;;;2.70;;
61477;SDS011;47345;52.334;10.392;2023-04-25T03:37:03;5.40;;;2.60;;
61477;SDS011;47345;52.334;10.392;2023-04-25T03:39:34;7.20;;;2.90;;
61477;SDS011;47345;52.334;10.392;2023-04-25T03:42:05;7.10;;;2.60;;
61477;SDS011;47345;52.334;10.392;2023-04-25T03:44:36;5.30;;;2.40;;
61477;SDS011;47345;52.334;10.392;2023-04-25T03:47:06;1.80;;;1.70;;
61477;SDS011;47345;52.334;10.392;2023-04-25T03:49:37;7.30;;;2.50;;
61477;SDS011;47345;52.334;10.392;2023-04-25T03:52:08;2.30;;;2.00;;
61477;SDS011;47345;52.334;10.392;2023-04-25T03:54:38;3.50;;;2.50;;
61477;SDS011;47345;52.334;10.392;2023-04-25T03:57:09;2.90;;;2.40;;
61477;SDS011;47345;52.334;10.392;2023-04-25T03:59:40;3.20;;;1.90;;
61477;SDS011;47345;52.334;10.392;2023-04-25T04:02:11;5.60;;;2.70;;
61477;SDS011;47345;52.334;10.392;2023-04-25T04:04:42;3.00;;;2.00;;
61477;SDS011;47345;52.334;10.392;2023-04-25T04:07:13;4.60;;;2.60;;
61477;SDS011;47345;52.334;10.392;2023-04-25T04:09:44;8.90;;;2.80;;
61477;SDS011;47345;52.334;10.392;2023-04-25T04:12:15;4.90;;;2.60;;
61477;SDS011;47345;52.334;10.392;2023-04-25T04:14:46;8.50;;;2.60;;
61477;SDS011;47345;52.334;10.392;2023-04-25T04:17:16;4.80;;;2.30;;
61477;SDS011;47345;52.334;10.392;2023-04-25T04:19:47;3.10;;;2.00;;
61477;SDS011;47345;52.334;10.392;2023-04-25T04:22:18;6.80;;;2.30;;
61477;SDS011;47345;52.334;10.392;2023-04-25T04:24:48;2.30;;;1.90;;
61477;SDS011;47345;52.334;10.392;2023-04-25T04:27:19;4.50;;;1.90;;
61477;SDS011;47345;52.334;10.392;2023-04-25T04:29:50;7.90;;;2.80;;
61477;SDS011;47345;52.334;10.392;2023-04-25T04:32:21;8.40;;;2.40;;
61477;SDS011;47345;52.334;10.392;2023-04-25T04:34:53;4.60;;;2.30;;
61477;SDS011;47345;52.334;10.392;2023-04-25T04:37:23;6.10;;;2.60;;
61477;SDS011;47345;52.334;10.392;2023-04-25T04:39:54;5.40;;;2.50;;
61477;SDS011;47345;52.334;10.392;2023-04-25T04:42:24;2.90;;;2.20;;
61477;SDS011;47345;52.334;10.392;2023-04-25T04:44:55;4.70;;;2.30;;
61477;SDS011;47345;52.334;10.392;2023-04-25T04:47:29;8.90;;;2.80;;
61477;SDS011;47345;52.334;10.392;2023-04-25T04:50:00;3.90;;;2.30;;
61477;SDS011;47345;52.334;10.392;2023-04-25T04:52:31;11.80;;;3.10;;
61477;SDS011;47345;52.334;10.392;2023-04-25T04:55:02;5.30;;;2.50;;
61477;SDS011;47345;52.334;10.392;2023-04-25T04:57:34;4.60;;;2.80;;
61477;SDS011;47345;52.334;10.392;2023-04-25T05:00:07;6.30;;;2.50;;
61477;SDS011;47345;52.334;10.392;2023-04-25T05:02:40;5.10;;;3.00;;
61477;SDS011;47345;52.334;10.392;2023-04-25T05:05:10;3.50;;;2.10;;
61477;SDS011;47345;52.334;10.392;2023-04-25T05:07:41;7.60;;;2.70;;
61477;SDS011;47345;52.334;10.392;2023-04-25T05:10:12;5.20;;;2.60;;
61477;SDS011;47345;52.334;10.392;2023-04-25T05:12:42;5.10;;;2.20;;
61477;SDS011;47345;52.334;10.392;2023-04-25T05:15:13;6.60;;;3.00;;
61477;SDS011;47345;52.334;10.392;2023-04-25T05:17:44;6.50;;;2.60;;
61477;SDS011;47345;52.334;10.392;2023-04-25T05:20:15;5.90;;;1.90;;
61477;SDS011;47345;52.334;10.392;2023-04-25T05:22:47;4.10;;;2.10;;
61477;SDS011;47345;52.334;10.392;2023-04-25T05:25:17;3.60;;;2.50;;
61477;SDS011;47345;52.334;10.392;2023-04-25T05:27:48;6.70;;;2.70;;
61477;SDS011;47345;52.334;10.392;2023-04-25T05:30:20;7.90;;;2.50;;
61477;SDS011;47345;52.334;10.392;2023-04-25T05:32:50;4.80;;;2.30;;
61477;SDS011;47345;52.334;10.392;2023-04-25T05:35:21;8.40;;;2.50;;
61477;SDS011;47345;52.334;10.392;2023-04-25T05:37:52;10.40;;;2.60;;
61477;SDS011;47345;52.334;10.392;2023-04-25T05:40:23;7.80;;;2.30;;
61477;SDS011;47345;52.334;10.392;2023-04-25T05:42:53;8.80;;;2.20;;
61477;SDS011;47345;52.334;10.392;2023-04-25T05:45:24;7.40;;;2.10;;
61477;SDS011;47345;52.334;10.392;2023-04-25T05:47:55;9.50;;;2.50;;
61477;SDS011;47345;52.334;10.392;2023-04-25T05:50:26;6.70;;;2.80;;
61477;SDS011;47345;52.334;10.392;2023-04-25T05:52:57;6.60;;;2.40;;
61477;SDS011;47345;52.334;10.392;2023-04-25T05:55:28;5.20;;;2.20;;
61477;SDS011;47345;52.334;10.392;2023-04-25T05:57:59;4.90;;;2.10;;
61477;SDS011;47345;52.334;10.392;2023-04-25T06:00:30;6.10;;;2.20;;
61477;SDS011;47345;52.334;10.392;2023-04-25T06:03:00;6.70;;;2.70;;
61477;SDS011;47345;52.334;10.392;2023-04-25T06:05:32;7.30;;;3.10;;
61477;SDS011;47345;52.334;10.392;2023-04-25T06:08:02;6.40;;;2.30;;
61477;SDS011;47345;52.334;10.392;2023-04-25T06:10:34;5.40;;;2.40;;
61477;SDS011;47345;52.334;10.392;2023-04-25T06:13:05;6.60;;;2.90;;
61477;SDS011;47345;52.334;10.392;2023-04-25T06:15:35;8.00;;;2.30;;
61477;SDS011;47345;52.334;10.392;2023-04-25T06:18:07;9.40;;;2.80;;
61477;SDS011;47345;52.334;10.392;2023-04-25T06:20:38;2.10;;;1.80;;
61477;SDS011;47345;52.334;10.392;2023-04-25T06:23:09;10.30;;;2.90;;
61477;SDS011;47345;52.334;10.392;2023-04-25T06:25:39;8.70;;;3.10;;
61477;SDS011;47345;52.334;10.392;2023-04-25T06:28:10;9.70;;;2.80;;
61477;SDS011;47345;52.334;10.392;2023-04-25T06:30:41;7.60;;;2.60;;
61477;SDS011;47345;52.334;10.392;2023-04-25T06:33:12;5.90;;;2.30;;
61477;SDS011;47345;52.334;10.392;2023-04-25T06:35:42;5.80;;;2.20;;
61477;SDS011;47345;52.334;10.392;2023-04-25T06:38:13;4.80;;;2.20;;
61477;SDS011;47345;52.334;10.392;2023-04-25T06:40:44;6.10;;;2.50;;
61477;SDS011;47345;52.334;10.392;2023-04-25T06:43:14;5.80;;;2.10;;
61477;SDS011;47345;52.334;10.392;2023-04-25T06:45:45;3.60;;;2.10;;
61477;SDS011;47345;52.334;10.392;2023-04-25T06:48:15;3.60;;;1.90;;
61477;SDS011;47345;52.334;10.392;2023-04-25T06:50:46;6.40;;;2.50;;
61477;SDS011;47345;52.334;10.392;2023-04-25T06:53:17;6.60;;;2.40;;
61477;SDS011;47345;52.334;10.392;2023-04-25T06:55:48;8.00;;;2.60;;
61477;SDS011;47345;52.334;10.392;2023-04-25T06:58:18;4.00;;;1.90;;
61477;SDS011;47345;52.334;10.392;2023-04-25T07:00:49;4.70;;;2.00;;
61477;SDS011;47345;52.334;10.392;2023-04-25T07:03:20;7.50;;;2.20;;
61477;SDS011;47345;52.334;10.392;2023-04-25T07:05:51;9.80;;;2.60;;
61477;SDS011;47345;52.334;10.392;2023-04-25T07:08:22;6.90;;;2.10;;
61477;SDS011;47345;52.334;10.392;2023-04-25T07:10:53;10.80;;;2.70;;
61477;SDS011;47345;52.334;10.392;2023-04-25T07:13:23;6.80;;;2.20;;
61477;SDS011;47345;52.334;10.392;2023-04-25T07:15:54;8.10;;;2.80;;
61477;SDS011;47345;52.334;10.392;2023-04-25T07:18:25;4.90;;;2.30;;
61477;SDS011;47345;52.334;10.392;2023-04-25T07:20:56;3.10;;;2.10;;
61477;SDS011;47345;52.334;10.392;2023-04-25T07:23:26;8.20;;;2.20;;
61477;SDS011;47345;52.334;10.392;2023-04-25T07:25:57;7.10;;;2.30;;
61477;SDS011;47345;52.334;10.392;2023-04-25T07:28:28;3.20;;;1.90;;
61477;SDS011;47345;52.334;10.392;2023-04-25T07:30:59;4.00;;;1.70;;
61477;SDS011;47345;52.334;10.392;2023-04-25T07:33:30;7.90;;;2.50;;
61477;SDS011;47345;52.334;10.392;2023-04-25T07:36:01;10.40;;;2.00;;
61477;SDS011;47345;52.334;10.392;2023-04-25T07:38:32;4.60;;;2.20;;
61477;SDS011;47345;52.334;10.392;2023-04-25T07:41:03;4.50;;;1.80;;
61477;SDS011;47345;52.334;10.392;2023-04-25T07:43:34;6.30;;;2.50;;
61477;SDS011;47345;52.334;10.392;2023-04-25T07:46:04;5.70;;;2.10;;
61477;SDS011;47345;52.334;10.392;2023-04-25T07:48:35;5.30;;;1.70;;
61477;SDS011;47345;52.334;10.392;2023-04-25T07:51:06;2.60;;;1.60;;
61477;SDS011;47345;52.334;10.392;2023-04-25T07:53:36;3.60;;;1.80;;
61477;SDS011;47345;52.334;10.392;2023-04-25T07:56:08;6.80;;;2.00;;
61477;SDS011;47345;52.334;10.392;2023-04-25T07:58:38;7.30;;;2.10;;
61477;SDS011;47345;52.334;10.392;2023-04-25T08:01:09;2.20;;;1.50;;
61477;SDS011;47345;52.334;10.392;2023-04-25T08:03:39;2.80;;;1.70;;
61477;SDS011;47345;52.334;10.392;2023-04-25T08:06:10;10.10;;;2.30;;
61477;SDS011;47345;52.334;10.392;2023-04-25T08:08:41;2.30;;;1.70;;
61477;SDS011;47345;52.334;10.392;2023-04-25T08:11:12;4.80;;;2.00;;
61477;SDS011;47345;52.334;10.392;2023-04-25T08:13:43;8.10;;;2.20;;
61477;SDS011;47345;52.334;10.392;2023-04-25T08:16:14;6.50;;;2.10;;
61477;SDS011;47345;52.334;10.392;2023-04-25T08:18:44;8.50;;;2.30;;
61477;SDS011;47345;52.334;10.392;2023-04-25T08:21:15;4.10;;;2.00;;
61477;SDS011;47345;52.334;10.392;2023-04-25T08:23:46;3.60;;;1.80;;
61477;SDS011;47345;52.334;10.392;2023-04-25T08:26:17;6.40;;;2.40;;
61477;SDS011;47345;52.334;10.392;2023-04-25T08:28:47;7.10;;;2.30;;
61477;SDS011;47345;52.334;10.392;2023-04-25T08:31:19;5.60;;;2.20;;
61477;SDS011;47345;52.334;10.392;2023-04-25T08:33:49;9.20;;;2.40;;
61477;SDS011;47345;52.334;10.392;2023-04-25T08:36:20;6.10;;;2.20;;
61477;SDS011;47345;52.334;10.392;2023-04-25T08:38:58;10.10;;;3.00;;
61477;SDS011;47345;52.334;10.392;2023-04-25T08:41:28;12.60;;;3.00;;
61477;SDS011;47345;52.334;10.392;2023-04-25T08:43:59;9.50;;;1.90;;
61477;SDS011;47345;52.334;10.392;2023-04-25T08:46:32;5.90;;;2.40;;
61477;SDS011;47345;52.334;10.392;2023-04-25T08:49:03;8.10;;;2.40;;
61477;SDS011;47345;52.334;10.392;2023-04-25T08:51:33;9.30;;;2.20;;
61477;SDS011;47345;52.334;10.392;2023-04-25T08:54:13;8.30;;;2.10;;
61477;SDS011;47345;52.334;10.392;2023-04-25T08:57:02;5.40;;;1.90;;
61477;SDS011;47345;52.334;10.392;2023-04-25T08:59:34;4.30;;;2.50;;
61477;SDS011;47345;52.334;10.392;2023-04-25T09:02:06;4.80;;;2.30;;
61477;SDS011;47345;52.334;10.392;2023-04-25T09:04:39;3.60;;;1.90;;
61477;SDS011;47345;52.334;10.392;2023-04-25T09:07:10;4.80;;;2.20;;
61477;SDS011;47345;52.334;10.392;2023-04-25T09:09:43;3.40;;;1.80;;
61477;SDS011;47345;52.334;10.392;2023-04-25T09:12:14;6.10;;;1.60;;
61477;SDS011;47345;52.334;10.392;2023-04-25T09:14:54;8.10;;;1.80;;
61477;SDS011;47345;52.334;10.392;2023-04-25T09:17:32;3.90;;;1.70;;
61477;SDS011;47345;52.334;10.392;2023-04-25T09:20:09;2.90;;;1.50;;
61477;SDS011;47345;52.334;10.392;2023-04-25T09:22:41;5.00;;;2.70;;
61477;SDS011;47345;52.334;10.392;2023-04-25T09:25:14;3.70;;;1.60;;
61477;SDS011;47345;52.334;10.392;2023-04-25T09:27:51;3.70;;;1.80;;
61477;SDS011;47345;52.334;10.392;2023-04-25T09:30:29;5.10;;;1.80;;
61477;SDS011;47345;52.334;10.392;2023-04-25T09:33:05;5.50;;;1.50;;
61477;SDS011;47345;52.334;10.392;2023-04-25T09:35:37;2.00;;;1.30;;
61477;SDS011;47345;52.334;10.392;2023-04-25T09:38:10;2.70;;;1.50;;
61477;SDS011;47345;52.334;10.392;2023-04-25T09:40:42;4.20;;;1.80;;
61477;SDS011;47345;52.334;10.392;2023-04-25T09:43:19;4.70;;;1.90;;
61477;SDS011;47345;52.334;10.392;2023-04-25T09:45:51;7.10;;;1.40;;
61477;SDS011;47345;52.334;10.392;2023-04-25T09:48:26;5.10;;;1.80;;
61477;SDS011;47345;52.334;10.392;2023-04-25T09:51:07;4.00;;;1.80;;
61477;SDS011;47345;52.334;10.392;2023-04-25T09:53:39;7.20;;;1.90;;
61477;SDS011;47345;52.334;10.392;2023-04-25T09:56:11;3.40;;;1.60;;
61477;SDS011;47345;52.334;10.392;2023-04-25T09:58:42;2.60;;;1.50;;
61477;SDS011;47345;52.334;10.392;2023-04-25T10:01:12;4.10;;;1.60;;
61477;SDS011;47345;52.334;10.392;2023-04-25T10:03:45;4.40;;;1.90;;
61477;SDS011;47345;52.334;10.392;2023-04-25T10:06:20;7.60;;;2.50;;
61477;SDS011;47345;52.334;10.392;2023-04-25T10:08:54;3.30;;;1.80;;
61477;SDS011;47345;52.334;10.392;2023-04-25T10:11:26;3.60;;;1.60;;
61477;SDS011;47345;52.334;10.392;2023-04-25T10:13:59;2.40;;;1.80;;
61477;SDS011;47345;52.334;10.392;2023-04-25T10:16:30;3.40;;;1.60;;
61477;SDS011;47345;52.334;10.392;2023-04-25T10:19:02;2.30;;;1.60;;
61477;SDS011;47345;52.334;10.392;2023-04-25T10:21:33;2.30;;;1.40;;
61477;SDS011;47345;52.334;10.392;2023-04-25T10:24:06;3.10;;;1.60;;
61477;SDS011;47345;52.334;10.392;2023-04-25T10:26:38;4.20;;;1.70;;
61477;SDS011;47345;52.334;10.392;2023-04-25T10:29:09;4.00;;;1.50;;
61477;SDS011;47345;52.334;10.392;2023-04-25T10:31:45;1.50;;;1.30;;
61477;SDS011;47345;52.334;10.392;2023-04-25T10:34:16;3.00;;;1.50;;
61477;SDS011;47345;52.334;10.392;2023-04-25T10:36:51;2.50;;;1.60;;
61477;SDS011;47345;52.334;10.392;2023-04-25T10:39:26;2.00;;;1.50;;
61477;SDS011;47345;52.334;10.392;2023-04-25T10:41:58;3.40;;;1.20;;
61477;SDS011;47345;52.334;10.392;2023-04-25T10:44:30;5.30;;;1.50;;
61477;SDS011;47345;52.334;10.392;2023-04-25T10:47:02;1.90;;;1.30;;
61477;SDS011;47345;52.334;10.392;2023-04-25T10:49:35;2.10;;;1.40;;
61477;SDS011;47345;52.334;10.392;2023-04-25T10:52:14;4.20;;;1.80;;
61477;SDS011;47345;52.334;10.392;2023-04-25T10:54:55;6.50;;;1.80;;
61477;SDS011;47345;52.334;10.392;2023-04-25T10:57:30;3.80;;;1.60;;
61477;SDS011;47345;52.334;10.392;2023-04-25T11:00:09;1.70;;;1.40;;
61477;SDS011;47345;52.334;10.392;2023-04-25T11:02:43;5.60;;;1.80;;
61477;SDS011;47345;52.334;10.392;2023-04-25T11:05:26;3.80;;;1.40;;
61477;SDS011;47345;52.334;10.392;2023-04-25T11:08:11;1.30;;;1.20;;
61477;SDS011;47345;52.334;10.392;2023-04-25T11:10:46;2.70;;;1.40;;
61477;SDS011;47345;52.334;10.392;2023-04-25T11:13:21;2.60;;;1.70;;
61477;SDS011;47345;52.334;10.392;2023-04-25T11:15:57;1.90;;;1.30;;
61477;SDS011;47345;52.334;10.392;2023-04-25T11:18:41;2.00;;;1.60;;
61477;SDS011;47345;52.334;10.392;2023-04-25T11:21:13;2.30;;;1.50;;
61477;SDS011;47345;52.334;10.392;2023-04-25T11:23:45;1.10;;;1.00;;
61477;SDS011;47345;52.334;10.392;2023-04-25T11:26:17;1.40;;;1.30;;
61477;SDS011;47345;52.334;10.392;2023-04-25T11:28:50;2.90;;;1.60;;
61477;SDS011;47345;52.334;10.392;2023-04-25T11:31:21;3.10;;;1.50;;
61477;SDS011;47345;52.334;10.392;2023-04-25T11:33:54;6.40;;;1.60;;
61477;SDS011;47345;52.334;10.392;2023-04-25T11:36:27;4.10;;;1.50;;
61477;SDS011;47345;52.334;10.392;2023-04-25T11:38:58;2.40;;;1.60;;
61477;SDS011;47345;52.334;10.392;2023-04-25T11:41:29;3.70;;;1.50;;
61477;SDS011;47345;52.334;10.392;2023-04-25T11:44:01;1.40;;;1.30;;
61477;SDS011;47345;52.334;10.392;2023-04-25T11:46:34;5.30;;;2.00;;
61477;SDS011;47345;52.334;10.392;2023-04-25T11:49:05;2.30;;;1.70;;
61477;SDS011;47345;52.334;10.392;2023-04-25T11:51:39;4.00;;;2.10;;
61477;SDS011;47345;52.334;10.392;2023-04-25T11:54:11;1.70;;;1.60;;
61477;SDS011;47345;52.334;10.392;2023-04-25T11:56:42;2.90;;;1.70;;
61477;SDS011;47345;52.334;10.392;2023-04-25T11:59:14;1.70;;;1.40;;
61477;SDS011;47345;52.334;10.392;2023-04-25T12:01:49;3.60;;;1.40;;
61477;SDS011;47345;52.334;10.392;2023-04-25T12:04:20;1.60;;;1.20;;
61477;SDS011;47345;52.334;10.392;2023-04-25T12:06:53;1.10;;;1.00;;
61477;SDS011;47345;52.334;10.392;2023-04-25T12:09:29;2.10;;;1.50;;
61477;SDS011;47345;52.334;10.392;2023-04-25T12:12:00;3.10;;;1.60;;
61477;SDS011;47345;52.334;10.392;2023-04-25T12:14:34;1.30;;;1.20;;
61477;SDS011;47345;52.334;10.392;2023-04-25T12:17:04;4.40;;;1.50;;
61477;SDS011;47345;52.334;10.392;2023-04-25T12:19:36;1.70;;;1.50;;
61477;SDS011;47345;52.334;10.392;2023-04-25T12:22:19;4.00;;;1.70;;
61477;SDS011;47345;52.334;10.392;2023-04-25T12:24:51;5.20;;;1.40;;
61477;SDS011;47345;52.334;10.392;2023-04-25T12:27:24;3.20;;;1.30;;
61477;SDS011;47345;52.334;10.392;2023-04-25T12:29:56;1.50;;;1.00;;
61477;SDS011;47345;52.334;10.392;2023-04-25T12:32:28;2.40;;;1.20;;
61477;SDS011;47345;52.334;10.392;2023-04-25T12:34:59;1.70;;;1.10;;
61477;SDS011;47345;52.334;10.392;2023-04-25T12:37:30;5.00;;;1.20;;
61477;SDS011;47345;52.334;10.392;2023-04-25T12:40:02;1.10;;;1.00;;
61477;SDS011;47345;52.334;10.392;2023-04-25T12:42:34;1.20;;;1.10;;
61477;SDS011;47345;52.334;10.392;2023-04-25T12:45:05;2.80;;;1.20;;
61477;SDS011;47345;52.334;10.392;2023-04-25T12:47:37;1.20;;;1.10;;
61477;SDS011;47345;52.334;10.392;2023-04-25T12:50:08;1.20;;;1.10;;
61477;SDS011;47345;52.334;10.392;2023-04-25T12:52:39;1.30;;;1.20;;
61477;SDS011;47345;52.334;10.392;2023-04-25T12:55:10;1.10;;;0.70;;
61477;SDS011;47345;52.334;10.392;2023-04-25T12:57:41;2.10;;;1.20;;
61477;SDS011;47345;52.334;10.392;2023-04-25T13:00:12;1.10;;;1.00;;
61477;SDS011;47345;52.334;10.392;2023-04-25T13:02:45;2.30;;;1.50;;
61477;SDS011;47345;52.334;10.392;2023-04-25T13:05:17;1.40;;;1.20;;
61477;SDS011;47345;52.334;10.392;2023-04-25T13:07:47;3.80;;;1.30;;
61477;SDS011;47345;52.334;10.392;2023-04-25T13:10:19;2.60;;;1.40;;
61477;SDS011;47345;52.334;10.392;2023-04-25T13:12:50;4.70;;;1.90;;
61477;SDS011;47345;52.334;10.392;2023-04-25T13:15:20;3.60;;;1.30;;
61477;SDS011;47345;52.334;10.392;2023-04-25T13:17:51;5.20;;;1.60;;
61477;SDS011;47345;52.334;10.392;2023-04-25T13:20:23;2.50;;;1.40;;
61477;SDS011;47345;52.334;10.392;2023-04-25T13:22:54;4.30;;;1.50;;
61477;SDS011;47345;52.334;10.392;2023-04-25T13:25:26;2.90;;;1.30;;
61477;SDS011;47345;52.334;10.392;2023-04-25T13:27:56;1.50;;;1.30;;
61477;SDS011;47345;52.334;10.392;2023-04-25T13:30:27;1.80;;;1.10;;
61477;SDS011;47345;52.334;10.392;2023-04-25T13:32:58;2.10;;;0.80;;
61477;SDS011;47345;52.334;10.392;2023-04-25T13:35:31;1.40;;;1.10;;
61477;SDS011;47345;52.334;10.392;2023-04-25T13:38:02;1.30;;;1.10;;
61477;SDS011;47345;52.334;10.392;2023-04-25T13:40:33;1.90;;;0.90;;
61477;SDS011;47345;52.334;10.392;2023-04-25T13:43:04;1.40;;;1.30;;
61477;SDS011;47345;52.334;10.392;2023-04-25T13:45:35;2.50;;;0.90;;
61477;SDS011;47345;52.334;10.392;2023-04-25T13:48:06;0.80;;;0.80;;
61477;SDS011;47345;52.334;10.392;2023-04-25T13:50:36;3.70;;;1.10;;
61477;SDS011;47345;52.334;10.392;2023-04-25T13:53:07;1.30;;;1.00;;
61477;SDS011;47345;52.334;10.392;2023-04-25T13:55:38;1.00;;;0.90;;
61477;SDS011;47345;52.334;10.392;2023-04-25T13:58:09;2.00;;;1.00;;
61477;SDS011;47345;52.334;10.392;2023-04-25T14:00:39;2.70;;;0.90;;
61477;SDS011;47345;52.334;10.392;2023-04-25T14:03:11;1.20;;;1.10;;
61477;SDS011;47345;52.334;10.392;2023-04-25T14:05:42;2.60;;;1.20;;
61477;SDS011;47345;52.334;10.392;2023-04-25T14:08:13;3.30;;;1.10;;
61477;SDS011;47345;52.334;10.392;2023-04-25T14:10:43;2.20;;;1.20;;
61477;SDS011;47345;52.334;10.392;2023-04-25T14:13:14;2.60;;;1.30;;
61477;SDS011;47345;52.334;10.392;2023-04-25T14:15:45;1.60;;;1.40;;
61477;SDS011;47345;52.334;10.392;2023-04-25T14:18:18;1.80;;;1.20;;
61477;SDS011;47345;52.334;10.392;2023-04-25T14:20:48;3.30;;;1.50;;
61477;SDS011;47345;52.334;10.392;2023-04-25T14:23:19;3.10;;;1.20;;
61477;SDS011;47345;52.334;10.392;2023-04-25T14:25:49;3.60;;;1.80;;
61477;SDS011;47345;52.334;10.392;2023-04-25T14:28:20;2.10;;;1.30;;
61477;SDS011;47345;52.334;10.392;2023-04-25T14:30:50;2.80;;;1.20;;
61477;SDS011;47345;52.334;10.392;2023-04-25T14:33:21;2.20;;;1.40;;
61477;SDS011;47345;52.334;10.392;2023-04-25T14:35:52;1.30;;;1.20;;
61477;SDS011;47345;52.334;10.392;2023-04-25T14:38:23;1.80;;;1.20;;
61477;SDS011;47345;52.334;10.392;2023-04-25T14:40:54;1.90;;;1.20;;
61477;SDS011;47345;52.334;10.392;2023-04-25T14:43:24;1.40;;;1.30;;
61477;SDS011;47345;52.334;10.392;2023-04-25T14:45:55;1.60;;;1.10;;
61477;SDS011;47345;52.334;10.392;2023-04-25T14:48:26;3.40;;;1.10;;
61477;SDS011;47345;52.334;10.392;2023-04-25T14:50:57;1.20;;;1.00;;
61477;SDS011;47345;52.334;10.392;2023-04-25T14:53:28;1.80;;;1.60;;
61477;SDS011;47345;52.334;10.392;2023-04-25T14:55:59;2.70;;;1.30;;
61477;SDS011;47345;52.334;10.392;2023-04-25T14:58:30;2.60;;;1.40;;
61477;SDS011;47345;52.334;10.392;2023-04-25T15:01:01;1.90;;;1.60;;